createdAt,value
2023-04-17T00:00:59.652Z,11.11
2023-04-17T00:03:27.561Z,11.10
2023-04-17T00:05:56.779Z,11.10
2023-04-17T00:08:24.598Z,11.10
2023-04-17T00:11:00.683Z,11.08
2023-04-17T00:13:32.229Z,11.06
2023-04-17T00:15:59.931Z,11.07
2023-04-17T00:18:27.662Z,11.05
2023-04-17T00:20:56.537Z,11.06
2023-04-17T00:23:24.287Z,11.05
2023-04-17T00:25:53.386Z,11.04
2023-04-17T00:28:21.089Z,11.04
2023-04-17T00:30:48.871Z,10.99
2023-04-17T00:33:16.750Z,11.00
2023-04-17T00:35:44.445Z,10.98
2023-04-17T00:38:12.150Z,10.98
2023-04-17T00:40:39.894Z,10.96
2023-04-17T00:43:08.959Z,10.94
2023-04-17T00:45:36.789Z,10.95
2023-04-17T00:48:05.591Z,10.97
2023-04-17T00:50:33.397Z,10.97
2023-04-17T00:53:01.717Z,10.97
2023-04-17T00:55:30.011Z,10.98
2023-04-17T00:57:58.164Z,10.98
2023-04-17T01:00:27.523Z,11.00
2023-04-17T01:02:57.808Z,11.00
2023-04-17T01:05:27.422Z,10.99
2023-04-17T01:07:55.763Z,10.99
2023-04-17T01:10:23.767Z,10.98
2023-04-17T01:13:02.521Z,10.99
2023-04-17T01:15:31.597Z,10.93
2023-04-17T01:17:59.672Z,10.93
2023-04-17T01:20:29.974Z,10.89
2023-04-17T01:22:57.851Z,10.90
2023-04-17T01:25:27.795Z,10.90
2023-04-17T01:27:56.112Z,10.90
2023-04-17T01:30:24.129Z,10.87
2023-04-17T01:32:51.984Z,10.86
2023-04-17T01:35:19.735Z,10.87
2023-04-17T01:37:47.436Z,10.87
2023-04-17T01:40:15.408Z,10.87
2023-04-17T01:42:44.563Z,10.86
2023-04-17T01:45:12.571Z,10.85
2023-04-17T01:47:40.679Z,10.76
2023-04-17T01:50:09.791Z,10.85
2023-04-17T01:52:37.518Z,10.84
2023-04-17T01:55:06.010Z,10.84
2023-04-17T01:57:34.361Z,10.83
2023-04-17T02:00:07.199Z,10.84
2023-04-17T02:02:35.044Z,10.83
2023-04-17T02:05:03.123Z,10.82
2023-04-17T02:07:30.763Z,10.81
2023-04-17T02:09:58.456Z,10.81
2023-04-17T02:12:26.146Z,10.80
2023-04-17T02:14:53.835Z,10.80
2023-04-17T02:17:22.999Z,10.79
2023-04-17T02:19:50.729Z,10.78
2023-04-17T02:22:18.571Z,10.76
2023-04-17T02:24:46.301Z,10.76
2023-04-17T02:27:14.037Z,10.77
2023-04-17T02:29:42.081Z,10.76
2023-04-17T02:32:09.809Z,10.77
2023-04-17T02:34:38.912Z,10.79
2023-04-17T02:37:06.690Z,10.79
2023-04-17T02:39:35.239Z,10.80
2023-04-17T02:42:03.210Z,10.78
2023-04-17T02:44:30.946Z,10.76
2023-04-17T02:46:58.711Z,10.75
2023-04-17T02:49:26.439Z,10.76
2023-04-17T02:51:55.576Z,10.76
2023-04-17T02:54:23.300Z,10.72
2023-04-17T02:56:51.241Z,10.72
2023-04-17T02:59:18.941Z,10.72
2023-04-17T03:01:46.678Z,10.73
2023-04-17T03:04:14.427Z,10.72
2023-04-17T03:06:42.200Z,10.73
2023-04-17T03:09:12.374Z,10.73
2023-04-17T03:11:40.322Z,10.73
2023-04-17T03:14:08.069Z,10.75
2023-04-17T03:16:35.808Z,10.74
2023-04-17T03:19:03.537Z,10.73
2023-04-17T03:21:31.444Z,10.71
2023-04-17T03:23:59.331Z,10.72
2023-04-17T03:26:28.432Z,10.71
2023-04-17T03:28:56.145Z,10.71
2023-04-17T03:31:25.706Z,10.72
2023-04-17T03:33:53.462Z,10.71
2023-04-17T03:36:21.291Z,10.71
2023-04-17T03:38:48.980Z,10.69
2023-04-17T03:41:16.678Z,10.67
2023-04-17T03:43:45.739Z,10.64
2023-04-17T03:46:13.542Z,10.69
2023-04-17T03:48:41.328Z,10.68
2023-04-17T03:51:09.130Z,10.67
2023-04-17T03:53:36.841Z,10.69
2023-04-17T03:56:04.877Z,10.68
2023-04-17T03:58:32.585Z,10.70
2023-04-17T04:01:02.065Z,10.69
2023-04-17T04:03:30.338Z,10.68
2023-04-17T04:05:58.255Z,10.68
2023-04-17T04:08:26.435Z,10.66
2023-04-17T04:10:54.225Z,10.66
2023-04-17T04:13:22.008Z,10.67
2023-04-17T04:15:49.904Z,10.66
2023-04-17T04:18:19.226Z,10.56
2023-04-17T04:20:46.955Z,10.64
2023-04-17T04:23:16.847Z,10.65
2023-04-17T04:25:44.631Z,10.62
2023-04-17T04:28:13.308Z,10.62
2023-04-17T04:30:41.045Z,10.57
2023-04-17T04:33:08.996Z,10.57
2023-04-17T04:35:38.609Z,10.56
2023-04-17T04:38:06.368Z,10.58
2023-04-17T04:40:36.144Z,10.58
2023-04-17T04:43:04.346Z,10.58
2023-04-17T04:45:32.088Z,10.58
2023-04-17T04:47:59.877Z,10.57
2023-04-17T04:50:27.591Z,10.56
2023-04-17T04:52:56.660Z,10.58
2023-04-17T04:55:24.577Z,10.57
2023-04-17T04:57:53.396Z,10.56
2023-04-17T05:00:21.466Z,10.55
2023-04-17T05:02:49.304Z,10.55
2023-04-17T05:05:17.061Z,10.54
2023-04-17T05:07:44.758Z,10.55
2023-04-17T05:10:13.809Z,10.55
2023-04-17T05:12:42.413Z,10.56
2023-04-17T05:15:11.289Z,10.55
2023-04-17T05:17:39.066Z,10.54
2023-04-17T05:20:09.235Z,10.53
2023-04-17T05:22:37.103Z,10.54
2023-04-17T05:25:05.425Z,10.54
2023-04-17T05:27:34.529Z,10.54
2023-04-17T05:30:02.314Z,10.56
2023-04-17T05:32:31.278Z,10.56
2023-04-17T05:34:59.122Z,10.55
2023-04-17T05:37:26.968Z,10.53
2023-04-17T05:39:54.690Z,10.55
2023-04-17T05:42:22.364Z,10.54
2023-04-17T05:44:51.941Z,10.54
2023-04-17T05:47:19.956Z,10.53
2023-04-17T05:49:48.717Z,10.51
2023-04-17T05:52:16.510Z,10.51
2023-04-17T05:54:44.234Z,10.51
2023-04-17T05:57:11.958Z,10.48
2023-04-17T05:59:39.840Z,10.44
2023-04-17T06:02:09.463Z,10.43
2023-04-17T06:04:37.626Z,10.44
2023-04-17T06:07:06.234Z,10.40
2023-04-17T06:09:33.995Z,10.41
2023-04-17T06:12:01.732Z,10.41
2023-04-17T06:14:29.450Z,10.40
2023-04-17T06:16:57.229Z,10.36
2023-04-17T06:19:26.326Z,10.34
2023-04-17T06:21:54.051Z,10.35
2023-04-17T06:24:21.823Z,10.38
2023-04-17T06:26:49.539Z,10.39
2023-04-17T06:29:17.231Z,10.42
2023-04-17T06:31:44.982Z,10.43
2023-04-17T06:34:12.673Z,10.45
2023-04-17T06:36:41.758Z,10.46
2023-04-17T06:39:09.739Z,10.44
2023-04-17T06:41:37.662Z,10.45
2023-04-17T06:44:05.612Z,10.47
2023-04-17T06:46:34.593Z,10.37
2023-04-17T06:49:02.767Z,10.46
2023-04-17T06:51:30.605Z,10.45
2023-04-17T06:54:00.240Z,10.46
2023-04-17T06:56:27.977Z,10.47
2023-04-17T06:58:57.903Z,10.48
2023-04-17T07:01:27.958Z,10.49
2023-04-17T07:03:55.969Z,10.44
2023-04-17T07:06:24.157Z,10.50
2023-04-17T07:08:53.478Z,10.50
2023-04-17T07:11:24.064Z,10.49
2023-04-17T07:13:51.789Z,10.48
2023-04-17T07:16:21.338Z,10.47
2023-04-17T07:18:49.137Z,10.46
2023-04-17T07:21:16.906Z,10.44
2023-04-17T07:23:44.655Z,10.45
2023-04-17T07:26:12.962Z,10.44
2023-04-17T07:28:42.194Z,10.41
2023-04-17T07:31:09.976Z,10.46
2023-04-17T07:33:40.376Z,10.43
2023-04-17T07:36:11.209Z,10.45
2023-04-17T07:38:40.961Z,10.47
2023-04-17T07:41:08.827Z,10.46
2023-04-17T07:43:36.666Z,10.47
2023-04-17T07:46:06.008Z,10.48
2023-04-17T07:48:33.795Z,10.48
2023-04-17T07:51:01.915Z,10.48
2023-04-17T07:53:29.836Z,10.49
2023-04-17T07:55:58.571Z,10.48
2023-04-17T07:58:27.159Z,10.49
2023-04-17T08:00:55.007Z,10.46
2023-04-17T08:03:24.594Z,10.47
2023-04-17T08:05:54.040Z,10.47
2023-04-17T08:08:23.689Z,10.47
2023-04-17T08:10:52.198Z,10.48
2023-04-17T08:13:20.075Z,10.46
2023-04-17T08:15:47.794Z,10.44
2023-04-17T08:18:15.587Z,10.45
2023-04-17T08:20:44.705Z,10.36
2023-04-17T08:23:12.509Z,10.43
2023-04-17T08:25:40.298Z,10.46
2023-04-17T08:28:08.007Z,10.47
2023-04-17T08:30:35.983Z,10.49
2023-04-17T08:33:03.806Z,10.47
2023-04-17T08:35:31.559Z,10.46
2023-04-17T08:38:00.721Z,10.49
2023-04-17T08:40:28.769Z,10.51
2023-04-17T08:42:56.499Z,10.53
2023-04-17T08:45:25.109Z,10.52
2023-04-17T08:47:53.095Z,10.58
2023-04-17T08:50:22.013Z,10.71
2023-04-17T08:52:52.621Z,10.74
2023-04-17T08:55:24.847Z,10.77
2023-04-17T08:58:00.832Z,10.76
2023-04-17T09:00:29.569Z,10.76
2023-04-17T09:02:59.200Z,10.77
2023-04-17T09:05:30.192Z,10.76
2023-04-17T09:08:11.373Z,10.72
2023-04-17T09:10:42.886Z,10.73
2023-04-17T09:13:12.213Z,10.70
2023-04-17T09:15:39.968Z,10.71
2023-04-17T09:18:22.359Z,10.70
2023-04-17T09:20:51.394Z,10.70
2023-04-17T09:23:19.891Z,10.71
2023-04-17T09:26:07.289Z,10.72
2023-04-17T09:28:36.833Z,10.72
2023-04-17T09:31:06.570Z,10.65
2023-04-17T09:33:34.344Z,10.71
2023-04-17T09:36:22.811Z,10.70
2023-04-17T09:38:51.584Z,10.71
2023-04-17T09:41:28.861Z,10.72
2023-04-17T09:44:01.100Z,10.76
2023-04-17T09:46:38.373Z,10.88
2023-04-17T09:49:15.590Z,11.11
2023-04-17T09:51:43.550Z,11.29
2023-04-17T09:54:12.349Z,11.55
2023-04-17T09:56:41.949Z,11.79
2023-04-17T09:59:10.066Z,12.00
2023-04-17T10:01:39.990Z,12.22
2023-04-17T10:04:08.037Z,12.39
2023-04-17T10:06:37.093Z,12.56
2023-04-17T10:09:05.766Z,12.73
2023-04-17T10:11:37.269Z,12.84
2023-04-17T10:14:11.792Z,12.92
2023-04-17T10:16:42.593Z,13.00
2023-04-17T10:19:27.788Z,13.07
2023-04-17T10:22:33.018Z,13.08
2023-04-17T10:25:19.454Z,13.10
2023-04-17T10:28:06.224Z,13.02
2023-04-17T10:30:55.489Z,13.05
2023-04-17T10:33:25.786Z,12.95
2023-04-17T10:35:54.254Z,12.81
2023-04-17T10:38:36.287Z,12.64
2023-04-17T10:41:05.854Z,12.48
2023-04-17T10:43:33.975Z,12.36
2023-04-17T10:46:09.993Z,12.24
2023-04-17T10:48:40.926Z,12.18
2023-04-17T10:51:43.599Z,12.10
2023-04-17T10:54:13.702Z,12.05
2023-04-17T10:56:43.016Z,12.00
2023-04-17T10:59:12.418Z,11.92
2023-04-17T11:01:58.119Z,11.94
2023-04-17T11:04:29.083Z,11.93
2023-04-17T11:06:57.158Z,11.93
2023-04-17T11:09:26.612Z,11.92
2023-04-17T11:11:54.797Z,11.91
2023-04-17T11:14:24.162Z,11.92
2023-04-17T11:16:53.570Z,11.91
2023-04-17T11:19:23.097Z,11.90
2023-04-17T11:21:53.631Z,11.92
2023-04-17T11:24:24.787Z,11.92
2023-04-17T11:26:52.618Z,11.92
2023-04-17T11:29:21.805Z,11.91
2023-04-17T11:31:51.931Z,11.88
2023-04-17T11:34:21.658Z,11.95
2023-04-17T11:36:52.848Z,11.99
2023-04-17T11:39:21.253Z,12.00
2023-04-17T11:41:51.786Z,11.99
2023-04-17T11:44:21.076Z,12.00
2023-04-17T11:46:50.434Z,11.99
2023-04-17T11:49:24.403Z,12.02
2023-04-17T11:51:53.570Z,12.02
2023-04-17T11:54:22.480Z,12.05
2023-04-17T11:56:59.578Z,12.06
2023-04-17T11:59:34.500Z,12.09
2023-04-17T12:02:03.220Z,12.10
2023-04-17T12:04:34.213Z,12.12
2023-04-17T12:07:04.496Z,12.13
2023-04-17T12:09:32.546Z,12.13
2023-04-17T12:12:01.656Z,12.16
2023-04-17T12:14:29.720Z,12.17
2023-04-17T12:16:57.535Z,12.18
2023-04-17T12:19:26.701Z,12.19
2023-04-17T12:21:55.142Z,12.23
2023-04-17T12:24:25.199Z,12.18
2023-04-17T12:26:53.731Z,12.28
2023-04-17T12:29:29.386Z,12.29
2023-04-17T12:32:04.787Z,12.34
2023-04-17T12:34:32.603Z,12.33
2023-04-17T12:37:00.360Z,12.36
2023-04-17T12:39:29.485Z,12.35
2023-04-17T12:41:57.261Z,12.44
2023-04-17T12:44:27.122Z,12.48
2023-04-17T12:46:54.832Z,12.49
2023-04-17T12:49:23.736Z,12.50
2023-04-17T12:51:51.693Z,12.52
2023-04-17T12:54:19.492Z,12.56
2023-04-17T12:56:48.824Z,12.57
2023-04-17T12:59:17.224Z,12.57
2023-04-17T13:01:44.968Z,12.51
2023-04-17T13:04:13.377Z,12.59
2023-04-17T13:06:41.570Z,12.66
2023-04-17T13:09:09.521Z,12.65
2023-04-17T13:11:37.235Z,12.68
2023-04-17T13:14:06.438Z,12.61
2023-04-17T13:16:34.234Z,12.74
2023-04-17T13:19:02.023Z,12.74
2023-04-17T13:21:29.686Z,12.75
2023-04-17T13:23:57.397Z,12.77
2023-04-17T13:26:25.193Z,12.82
2023-04-17T13:28:52.942Z,12.80
2023-04-17T13:31:24.562Z,12.81
2023-04-17T13:33:52.410Z,12.82
2023-04-17T13:36:20.217Z,12.88
2023-04-17T13:38:47.950Z,12.87
2023-04-17T13:41:15.789Z,12.91
2023-04-17T13:43:43.550Z,12.95
2023-04-17T13:46:15.872Z,13.02
2023-04-17T13:48:45.059Z,13.08
2023-04-17T13:51:12.873Z,13.07
2023-04-17T13:53:40.666Z,13.10
2023-04-17T13:56:08.622Z,13.10
2023-04-17T13:58:36.405Z,13.12
2023-04-17T14:01:04.110Z,13.13
2023-04-17T14:03:31.870Z,13.15
2023-04-17T14:06:01.128Z,13.20
2023-04-17T14:08:28.846Z,13.19
2023-04-17T14:10:56.559Z,13.19
2023-04-17T14:13:24.258Z,13.15
2023-04-17T14:15:53.623Z,13.18
2023-04-17T14:18:21.673Z,13.23
2023-04-17T14:20:49.426Z,13.26
2023-04-17T14:23:18.818Z,13.25
2023-04-17T14:25:46.636Z,13.32
2023-04-17T14:28:14.707Z,13.32
2023-04-17T14:30:42.434Z,13.33
2023-04-17T14:33:10.178Z,13.25
2023-04-17T14:35:40.077Z,13.26
2023-04-17T14:38:07.916Z,13.33
2023-04-17T14:40:36.971Z,13.34
2023-04-17T14:43:04.698Z,13.33
2023-04-17T14:45:32.470Z,13.35
2023-04-17T14:48:00.272Z,13.36
2023-04-17T14:50:28.068Z,13.44
2023-04-17T14:52:56.658Z,13.57
2023-04-17T14:55:24.534Z,13.78
2023-04-17T14:57:53.787Z,13.98
2023-04-17T15:00:21.788Z,14.22
2023-04-17T15:02:50.071Z,14.39
2023-04-17T15:05:19.997Z,14.43
2023-04-17T15:07:48.215Z,14.40
2023-04-17T15:10:16.304Z,14.30
2023-04-17T15:12:44.973Z,14.20
2023-04-17T15:15:14.407Z,14.12
2023-04-17T15:17:42.333Z,14.03
2023-04-17T15:20:10.775Z,13.97
2023-04-17T15:22:38.553Z,13.91
2023-04-17T15:25:07.095Z,13.89
2023-04-17T15:27:34.930Z,13.87
2023-04-17T15:30:04.866Z,13.86
2023-04-17T15:32:33.979Z,13.85
2023-04-17T15:35:01.694Z,13.83
2023-04-17T15:37:29.547Z,13.84
2023-04-17T15:39:57.315Z,13.81
2023-04-17T15:42:25.052Z,13.78
2023-04-17T15:44:53.141Z,13.78
2023-04-17T15:47:21.016Z,13.76
2023-04-17T15:49:50.055Z,13.75
2023-04-17T15:52:17.777Z,13.74
2023-04-17T15:54:45.539Z,13.73
2023-04-17T15:57:13.280Z,13.72
2023-04-17T15:59:41.055Z,13.74
2023-04-17T16:02:11.657Z,13.74
2023-04-17T16:04:40.170Z,13.71
2023-04-17T16:07:09.355Z,13.71
2023-04-17T16:09:37.103Z,13.72
2023-04-17T16:12:08.261Z,13.72
2023-04-17T16:14:36.564Z,13.71
2023-04-17T16:17:04.653Z,13.69
2023-04-17T16:19:32.576Z,13.70
2023-04-17T16:22:00.353Z,13.69
2023-04-17T16:24:29.677Z,13.70
2023-04-17T16:26:58.730Z,13.71
2023-04-17T16:29:26.678Z,13.72
2023-04-17T16:31:55.214Z,13.62
2023-04-17T16:34:23.348Z,13.71
2023-04-17T16:36:51.098Z,13.72
2023-04-17T16:39:18.833Z,13.70
2023-04-17T16:41:48.123Z,13.70
2023-04-17T16:44:16.317Z,13.70
2023-04-17T16:47:03.118Z,13.68
2023-04-17T16:49:31.755Z,13.67
2023-04-17T16:51:59.708Z,13.67
2023-04-17T16:54:27.494Z,13.68
2023-04-17T16:56:57.074Z,13.68
2023-04-17T16:59:24.897Z,13.70
2023-04-17T17:01:52.733Z,13.68
2023-04-17T17:04:20.560Z,13.73
2023-04-17T17:06:48.290Z,13.73
2023-04-17T17:09:16.038Z,13.73
2023-04-17T17:11:43.706Z,13.71
2023-04-17T17:14:12.823Z,13.73
2023-04-17T17:16:41.444Z,13.72
2023-04-17T17:19:09.295Z,13.72
2023-04-17T17:21:37.003Z,13.73
2023-04-17T17:24:05.161Z,13.71
2023-04-17T17:26:32.902Z,13.72
2023-04-17T17:29:00.627Z,13.74
2023-04-17T17:31:29.832Z,13.76
2023-04-17T17:34:11.849Z,13.75
2023-04-17T17:36:48.749Z,13.75
2023-04-17T17:39:16.632Z,13.74
2023-04-17T17:41:46.687Z,13.72
2023-04-17T17:44:15.410Z,13.71
2023-04-17T17:46:44.619Z,13.72
2023-04-17T17:49:12.365Z,13.71
2023-04-17T17:51:40.100Z,13.62
2023-04-17T17:54:07.903Z,13.68
2023-04-17T17:56:35.843Z,13.63
2023-04-17T17:59:03.566Z,13.78
2023-04-17T18:01:31.329Z,13.95
2023-04-17T18:04:00.576Z,14.16
2023-04-17T18:06:28.695Z,14.37
2023-04-17T18:08:57.901Z,14.58
2023-04-17T18:11:25.776Z,14.77
2023-04-17T18:13:53.570Z,14.94
2023-04-17T18:16:21.541Z,15.09
2023-04-17T18:18:49.343Z,15.28
2023-04-17T18:21:18.504Z,15.41
2023-04-17T18:23:46.282Z,15.41
2023-04-17T18:26:14.009Z,15.32
2023-04-17T18:28:42.505Z,15.15
2023-04-17T18:31:10.664Z,14.96
2023-04-17T18:33:38.469Z,14.80
2023-04-17T18:36:06.688Z,14.66
2023-04-17T18:38:36.259Z,14.56
2023-04-17T18:41:04.490Z,14.47
2023-04-17T18:43:32.270Z,14.38
2023-04-17T18:46:03.991Z,14.30
2023-04-17T18:48:32.092Z,14.26
2023-04-17T18:51:09.476Z,14.21
2023-04-17T18:53:38.702Z,14.16
2023-04-17T18:56:06.698Z,14.12
2023-04-17T18:58:34.469Z,14.09
2023-04-17T19:01:02.296Z,14.05
2023-04-17T19:03:30.071Z,14.02
2023-04-17T19:05:57.878Z,13.99
2023-04-17T19:08:25.651Z,13.95
2023-04-17T19:10:54.779Z,13.93
2023-04-17T19:13:22.539Z,13.92
2023-04-17T19:15:50.438Z,13.88
2023-04-17T19:18:18.349Z,13.86
2023-04-17T19:20:46.062Z,13.81
2023-04-17T19:23:13.822Z,13.73
2023-04-17T19:25:42.411Z,13.71
2023-04-17T19:28:13.326Z,13.77
2023-04-17T19:30:41.171Z,13.75
2023-04-17T19:33:09.392Z,13.73
2023-04-17T19:35:37.202Z,13.71
2023-04-17T19:38:04.971Z,13.70
2023-04-17T19:40:32.799Z,13.68
2023-04-17T19:43:02.266Z,13.66
2023-04-17T19:45:33.848Z,13.64
2023-04-17T19:48:02.068Z,13.63
2023-04-17T19:50:31.015Z,13.61
2023-04-17T19:52:59.300Z,13.60
2023-04-17T19:55:27.110Z,13.52
2023-04-17T19:57:56.970Z,13.57
2023-04-17T20:00:24.905Z,13.55
2023-04-17T20:02:54.133Z,13.55
2023-04-17T20:05:22.059Z,13.54
2023-04-17T20:07:49.822Z,13.52
2023-04-17T20:10:17.669Z,13.50
2023-04-17T20:12:45.525Z,13.52
2023-04-17T20:15:13.316Z,13.50
2023-04-17T20:17:41.155Z,13.50
2023-04-17T20:20:11.830Z,13.49
2023-04-17T20:22:40.223Z,13.49
2023-04-17T20:25:08.685Z,13.48
2023-04-17T20:27:36.426Z,13.47
2023-04-17T20:30:04.630Z,13.46
2023-04-17T20:32:32.574Z,13.45
2023-04-17T20:35:01.707Z,13.37
2023-04-17T20:37:30.910Z,13.43
2023-04-17T20:39:58.627Z,13.42
2023-04-17T20:42:26.424Z,13.42
2023-04-17T20:44:55.261Z,13.38
2023-04-17T20:47:22.983Z,13.38
2023-04-17T20:49:50.818Z,13.37
2023-04-17T20:52:18.579Z,13.35
2023-04-17T20:54:47.902Z,13.25
2023-04-17T20:57:15.625Z,13.33
2023-04-17T20:59:43.356Z,13.33
2023-04-17T21:02:11.310Z,13.31
2023-04-17T21:04:39.194Z,13.31
2023-04-17T21:07:06.941Z,13.28
2023-04-17T21:09:34.709Z,13.28
2023-04-17T21:12:03.809Z,13.26
2023-04-17T21:14:33.776Z,13.26
2023-04-17T21:17:01.720Z,13.23
2023-04-17T21:19:30.760Z,13.23
2023-04-17T21:21:58.899Z,13.21
2023-04-17T21:24:26.669Z,13.20
2023-04-17T21:26:58.407Z,13.18
2023-04-17T21:29:28.036Z,13.16
2023-04-17T21:31:56.496Z,13.14
2023-04-17T21:34:24.880Z,13.06
2023-04-17T21:36:53.821Z,13.12
2023-04-17T21:39:21.798Z,13.10
2023-04-17T21:41:49.656Z,13.09
2023-04-17T21:44:17.379Z,13.07
2023-04-17T21:46:46.840Z,13.06
2023-04-17T21:49:14.634Z,13.04
2023-04-17T21:51:42.407Z,13.03
2023-04-17T21:54:10.782Z,13.02
2023-04-17T21:56:38.751Z,13.00
2023-04-17T21:59:06.441Z,12.99
2023-04-17T22:01:34.258Z,12.99
2023-04-17T22:04:03.457Z,12.98
2023-04-17T22:06:31.198Z,12.98
2023-04-17T22:08:59.005Z,12.98
2023-04-17T22:11:26.749Z,12.97
2023-04-17T22:13:54.501Z,12.95
2023-04-17T22:16:22.350Z,12.94
2023-04-17T22:18:50.168Z,12.92
2023-04-17T22:21:19.256Z,12.89
2023-04-17T22:23:46.972Z,12.89
2023-04-17T22:26:14.714Z,12.89
2023-04-17T22:28:42.426Z,12.88
2023-04-17T22:31:11.533Z,12.86
2023-04-17T22:33:39.328Z,12.85
2023-04-17T22:36:07.232Z,12.83
2023-04-17T22:38:36.322Z,12.82
2023-04-17T22:41:04.397Z,12.81
2023-04-17T22:43:32.199Z,12.80
2023-04-17T22:46:00.026Z,12.78
2023-04-17T22:48:28.380Z,12.71
2023-04-17T22:50:56.756Z,12.76
2023-04-17T22:53:24.546Z,12.77
2023-04-17T22:56:02.637Z,12.74
2023-04-17T22:58:32.615Z,12.72
2023-04-17T23:01:00.643Z,12.70
2023-04-17T23:03:28.602Z,12.69
2023-04-17T23:05:56.953Z,12.68
2023-04-17T23:08:24.923Z,12.67
2023-04-17T23:10:59.075Z,12.65
2023-04-17T23:13:28.898Z,12.64
2023-04-17T23:15:56.711Z,12.62
2023-04-17T23:18:24.664Z,12.62
2023-04-17T23:20:52.476Z,12.60
2023-04-17T23:23:20.203Z,12.60
2023-04-17T23:25:47.961Z,12.58
2023-04-17T23:28:15.760Z,12.55
2023-04-17T23:30:44.922Z,12.53
2023-04-17T23:33:12.765Z,12.51
2023-04-17T23:35:40.545Z,12.49
2023-04-17T23:38:08.365Z,12.48
2023-04-17T23:40:36.442Z,12.46
2023-04-17T23:43:04.215Z,12.48
2023-04-17T23:45:31.962Z,12.47
2023-04-17T23:48:01.096Z,12.47
2023-04-17T23:50:29.090Z,12.46
2023-04-17T23:52:56.951Z,12.45
2023-04-17T23:55:26.526Z,12.45
2023-04-17T23:57:54.491Z,12.45
